sensor_id;sensor_type;location;lat;lon;timestamp;P1;P4;P2;P0;N10;N4;N25;N1;N05;TS
74330;SPS30;62749;51.982;5.916;2023-09-19T00:01:35;1.96;1.94;1.85;1.65;13.16;13.15;13.13;12.96;10.97;0.62
74330;SPS30;62749;51.982;5.916;2023-09-19T00:04:06;1.90;1.88;1.81;1.62;12.96;12.96;12.94;12.78;10.84;0.61
74330;SPS30;62749;51.982;5.916;2023-09-19T00:06:36;1.93;1.91;1.85;1.67;13.36;13.36;13.34;13.19;11.20;0.60
74330;SPS30;62749;51.982;5.916;2023-09-19T00:09:05;2.07;2.05;1.96;1.74;13.95;13.95;13.92;13.74;11.63;0.62
74330;SPS30;62749;51.982;5.916;2023-09-19T00:11:39;2.04;2.02;1.90;1.67;13.35;13.34;13.31;13.11;11.06;0.64
74330;SPS30;62749;51.982;5.916;2023-09-19T00:14:08;1.96;1.93;1.83;1.61;12.89;12.89;12.86;12.67;10.70;0.63
74330;SPS30;62749;51.982;5.916;2023-09-19T00:16:41;1.84;1.82;1.74;1.54;12.33;12.33;12.30;12.14;10.27;0.62
74330;SPS30;62749;51.982;5.916;2023-09-19T00:19:13;2.40;2.38;2.26;2.00;16.01;16.00;15.97;15.76;13.32;0.63
74330;SPS30;62749;51.982;5.916;2023-09-19T00:21:42;2.31;2.28;2.15;1.87;14.96;14.95;14.91;14.68;12.36;0.63
74330;SPS30;62749;51.982;5.916;2023-09-19T00:24:12;2.33;2.30;2.17;1.90;15.16;15.15;15.12;14.88;12.55;0.63
74330;SPS30;62749;51.982;5.916;2023-09-19T00:26:46;2.42;2.39;2.22;1.90;15.20;15.19;15.15;14.87;12.47;0.64
74330;SPS30;62749;51.982;5.916;2023-09-19T00:29:15;2.69;2.65;2.46;2.09;16.75;16.73;16.68;16.37;13.72;0.63
74330;SPS30;62749;51.982;5.916;2023-09-19T00:31:45;2.93;2.89;2.66;2.26;18.06;18.05;17.99;17.64;14.76;0.63
74330;SPS30;62749;51.982;5.916;2023-09-19T00:34:15;2.83;2.78;2.54;2.13;17.08;17.07;17.01;16.65;13.90;0.64
74330;SPS30;62749;51.982;5.916;2023-09-19T00:36:46;3.22;3.17;2.88;2.39;19.17;19.16;19.09;18.65;15.54;0.66
74330;SPS30;62749;51.982;5.916;2023-09-19T00:39:15;3.05;3.00;2.79;2.39;19.12;19.11;19.05;18.70;15.69;0.65
74330;SPS30;62749;51.982;5.916;2023-09-19T00:41:49;3.17;3.12;2.90;2.49;19.90;19.89;19.83;19.47;16.33;0.64
74330;SPS30;62749;51.982;5.916;2023-09-19T00:44:18;3.17;3.12;2.90;2.48;19.87;19.86;19.80;19.44;16.31;0.64
74330;SPS30;62749;51.982;5.916;2023-09-19T00:46:49;3.27;3.21;2.90;2.38;19.03;19.02;18.94;18.47;15.34;0.65
74330;SPS30;62749;51.982;5.916;2023-09-19T00:49:18;3.28;3.21;2.86;2.29;18.35;18.33;18.24;17.73;14.63;0.66
74330;SPS30;62749;51.982;5.916;2023-09-19T00:51:48;3.28;3.20;2.82;2.23;17.86;17.84;17.75;17.21;14.15;0.68
74330;SPS30;62749;51.982;5.916;2023-09-19T00:54:18;3.29;3.22;2.85;2.26;18.15;18.13;18.04;17.51;14.42;0.69
74330;SPS30;62749;51.982;5.916;2023-09-19T00:56:51;3.10;3.03;2.70;2.16;17.32;17.30;17.22;16.74;13.82;0.69
74330;SPS30;62749;51.982;5.916;2023-09-19T00:59:20;3.36;3.29;2.92;2.34;18.77;18.76;18.67;18.14;14.97;0.69
74330;SPS30;62749;51.982;5.916;2023-09-19T01:01:50;3.10;3.04;2.74;2.24;17.92;17.91;17.83;17.38;14.42;0.66
74330;SPS30;62749;51.982;5.916;2023-09-19T01:04:22;2.83;2.78;2.53;2.09;16.75;16.74;16.68;16.29;13.56;0.66
74330;SPS30;62749;51.982;5.916;2023-09-19T01:06:53;2.84;2.79;2.54;2.11;16.86;16.84;16.78;16.40;13.66;0.66
74330;SPS30;62749;51.982;5.916;2023-09-19T01:09:24;3.02;2.97;2.70;2.24;17.97;17.96;17.89;17.48;14.56;0.66
74330;SPS30;62749;51.982;5.916;2023-09-19T01:11:57;3.35;3.30;3.03;2.56;20.48;20.47;20.40;19.98;16.70;0.64
74330;SPS30;62749;51.982;5.916;2023-09-19T01:14:34;3.45;3.40;3.10;2.59;20.72;20.70;20.62;20.17;16.82;0.64
74330;SPS30;62749;51.982;5.916;2023-09-19T01:17:13;3.03;2.99;2.78;2.39;19.10;19.09;19.04;18.69;15.69;0.63
74330;SPS30;62749;51.982;5.916;2023-09-19T01:22:46;3.22;3.18;2.99;2.60;20.78;20.76;20.71;20.38;17.16;0.62
74330;SPS30;62749;51.982;5.916;2023-09-19T01:25:33;3.33;3.29;3.07;2.65;21.23;21.22;21.16;20.80;17.48;0.64
74330;SPS30;62749;51.982;5.916;2023-09-19T01:28:32;3.73;3.67;3.38;2.86;22.89;22.87;22.80;22.34;18.69;0.64
74330;SPS30;62749;51.982;5.916;2023-09-19T01:31:11;3.59;3.54;3.25;2.74;21.93;21.91;21.84;21.39;17.88;0.67
74330;SPS30;62749;51.982;5.916;2023-09-19T01:33:54;3.15;3.11;2.88;2.46;19.68;19.66;19.60;19.24;16.13;0.65
74330;SPS30;62749;51.982;5.916;2023-09-19T01:36:31;3.66;3.62;3.40;2.95;23.63;23.62;23.56;23.18;19.52;0.62
74330;SPS30;62749;51.982;5.916;2023-09-19T01:39:04;3.64;3.58;3.32;2.84;22.71;22.69;22.62;22.20;18.61;0.63
74330;SPS30;62749;51.982;5.916;2023-09-19T01:44:36;3.48;3.42;3.13;2.61;20.90;20.88;20.80;20.35;16.97;0.65
74330;SPS30;62749;51.982;5.916;2023-09-19T01:47:23;3.52;3.46;3.15;2.63;21.02;21.00;20.93;20.46;17.05;0.65
74330;SPS30;62749;51.982;5.916;2023-09-19T01:50:04;3.50;3.42;3.04;2.43;19.50;19.48;19.39;18.84;15.55;0.65
74330;SPS30;62749;51.982;5.916;2023-09-19T01:52:46;3.77;3.69;3.29;2.63;21.08;21.06;20.96;20.37;16.81;0.67
74330;SPS30;62749;51.982;5.916;2023-09-19T01:55:20;3.83;3.74;3.29;2.58;20.70;20.68;20.57;19.92;16.36;0.69
74330;SPS30;62749;51.982;5.916;2023-09-19T01:57:52;4.00;3.90;3.40;2.63;21.13;21.10;20.98;20.28;16.60;0.71
74330;SPS30;62749;51.982;5.916;2023-09-19T02:00:30;4.16;4.06;3.52;2.70;21.67;21.64;21.51;20.76;16.95;0.71
74330;SPS30;62749;51.982;5.916;2023-09-19T02:03:07;3.56;3.48;3.06;2.40;19.24;19.22;19.12;18.52;15.20;0.70
74330;SPS30;62749;51.982;5.916;2023-09-19T02:05:38;3.93;3.84;3.36;2.61;20.94;20.92;20.80;20.12;16.49;0.71
74330;SPS30;62749;51.982;5.916;2023-09-19T02:08:07;3.83;3.73;3.21;2.43;19.47;19.44;19.32;18.60;15.12;0.71
74330;SPS30;62749;51.982;5.916;2023-09-19T02:10:37;3.87;3.77;3.26;2.50;20.07;20.05;19.93;19.23;15.69;0.69
74330;SPS30;62749;51.982;5.916;2023-09-19T02:13:07;3.65;3.56;3.14;2.47;19.77;19.75;19.64;19.04;15.64;0.68
74330;SPS30;62749;51.982;5.916;2023-09-19T02:15:36;3.40;3.32;2.91;2.29;18.34;18.32;18.22;17.65;14.49;0.69
74330;SPS30;62749;51.982;5.916;2023-09-19T02:18:08;3.95;3.84;3.33;2.54;20.39;20.37;20.24;19.52;15.91;0.71
74330;SPS30;62749;51.982;5.916;2023-09-19T02:20:38;4.13;4.03;3.50;2.70;21.66;21.63;21.50;20.77;16.97;0.72
74330;SPS30;62749;51.982;5.916;2023-09-19T02:23:07;3.35;3.27;2.85;2.20;17.67;17.65;17.55;16.96;13.87;0.71
74330;SPS30;62749;51.982;5.916;2023-09-19T02:25:37;3.60;3.52;3.12;2.49;19.92;19.90;19.80;19.23;15.85;0.69
74330;SPS30;62749;51.982;5.916;2023-09-19T02:28:07;3.68;3.60;3.20;2.56;20.49;20.47;20.37;19.79;16.32;0.68
74330;SPS30;62749;51.982;5.916;2023-09-19T02:30:37;3.55;3.46;3.01;2.33;18.67;18.65;18.54;17.91;14.65;0.70
74330;SPS30;62749;51.982;5.916;2023-09-19T02:33:09;4.02;3.90;3.33;2.49;19.96;19.93;19.79;19.01;15.39;0.72
74330;SPS30;62749;51.982;5.916;2023-09-19T02:35:40;4.18;4.04;3.38;2.41;19.39;19.35;19.19;18.30;14.63;0.76
74330;SPS30;62749;51.982;5.916;2023-09-19T02:38:09;4.26;4.12;3.42;2.42;19.42;19.39;19.22;18.29;14.57;0.77
74330;SPS30;62749;51.982;5.916;2023-09-19T02:40:38;4.32;4.18;3.47;2.44;19.66;19.62;19.45;18.50;14.73;0.77
74330;SPS30;62749;51.982;5.916;2023-09-19T02:43:09;4.09;3.96;3.29;2.33;18.74;18.71;18.55;17.66;14.08;0.75
74330;SPS30;62749;51.982;5.916;2023-09-19T02:45:38;4.40;4.26;3.54;2.51;20.19;20.15;19.98;19.03;15.17;0.75
74330;SPS30;62749;51.982;5.916;2023-09-19T02:48:10;4.43;4.28;3.50;2.40;19.33;19.29;19.11;18.08;14.27;0.78
74330;SPS30;62749;51.982;5.916;2023-09-19T02:50:41;4.31;4.16;3.41;2.34;18.86;18.82;18.64;17.65;13.94;0.77
74330;SPS30;62749;51.982;5.916;2023-09-19T02:53:11;4.54;4.38;3.57;2.42;19.48;19.44;19.25;18.17;14.29;0.78
74330;SPS30;62749;51.982;5.916;2023-09-19T02:55:41;4.67;4.50;3.66;2.47;19.88;19.84;19.64;18.53;14.54;0.78
74330;SPS30;62749;51.982;5.916;2023-09-19T02:58:10;4.43;4.27;3.49;2.38;19.13;19.09;18.91;17.87;14.07;0.78
74330;SPS30;62749;51.982;5.916;2023-09-19T03:00:40;4.63;4.47;3.65;2.49;20.07;20.03;19.84;18.76;14.78;0.77
74330;SPS30;62749;51.982;5.916;2023-09-19T03:03:16;4.08;3.94;3.25;2.27;18.24;18.21;18.04;17.13;13.59;0.77
74330;SPS30;62749;51.982;5.916;2023-09-19T03:05:45;4.14;4.00;3.29;2.29;18.43;18.40;18.23;17.30;13.71;0.77
74330;SPS30;62749;51.982;5.916;2023-09-19T03:08:17;3.98;3.85;3.20;2.27;18.23;18.20;18.04;17.17;13.68;0.75
74330;SPS30;62749;51.982;5.916;2023-09-19T03:10:48;3.91;3.80;3.22;2.38;19.09;19.06;18.92;18.14;14.64;0.71
74330;SPS30;62749;51.982;5.916;2023-09-19T03:13:17;3.87;3.75;3.20;2.37;19.06;19.03;18.90;18.14;14.67;0.72
74330;SPS30;62749;51.982;5.916;2023-09-19T03:15:46;4.66;4.51;3.76;2.69;21.59;21.55;21.37;20.37;16.28;0.74
74330;SPS30;62749;51.982;5.916;2023-09-19T03:18:19;3.99;3.88;3.29;2.43;19.53;19.50;19.36;18.57;14.99;0.73
74330;SPS30;62749;51.982;5.916;2023-09-19T03:20:52;4.38;4.25;3.59;2.62;21.02;20.99;20.83;19.93;16.03;0.74
74330;SPS30;62749;51.982;5.916;2023-09-19T03:23:22;4.85;4.68;3.86;2.70;21.70;21.66;21.47;20.38;16.18;0.77
74330;SPS30;62749;51.982;5.916;2023-09-19T03:25:52;4.54;4.38;3.56;2.42;19.47;19.44;19.24;18.17;14.29;0.78
74330;SPS30;62749;51.982;5.916;2023-09-19T03:28:22;5.15;4.99;4.17;2.98;23.98;23.94;23.74;22.64;18.11;0.73
74330;SPS30;62749;51.982;5.916;2023-09-19T03:30:58;4.24;4.13;3.57;2.73;21.92;21.89;21.76;20.99;17.11;0.69
74330;SPS30;62749;51.982;5.916;2023-09-19T03:33:31;3.84;3.73;3.19;2.39;19.19;19.16;19.03;18.29;14.83;0.72
74330;SPS30;62749;51.982;5.916;2023-09-19T03:36:01;3.78;3.67;3.10;2.27;18.27;18.24;18.11;17.34;13.97;0.74
74330;SPS30;62749;51.982;5.916;2023-09-19T03:38:32;3.91;3.80;3.24;2.41;19.32;19.30;19.16;18.40;14.88;0.74
74330;SPS30;62749;51.982;5.916;2023-09-19T03:41:02;4.09;3.96;3.32;2.39;19.22;19.19;19.04;18.17;14.56;0.75
74330;SPS30;62749;51.982;5.916;2023-09-19T03:43:32;4.11;3.98;3.32;2.38;19.13;19.10;18.94;18.06;14.45;0.75
74330;SPS30;62749;51.982;5.916;2023-09-19T03:46:01;4.39;4.25;3.54;2.53;20.31;20.27;20.11;19.16;15.30;0.76
74330;SPS30;62749;51.982;5.916;2023-09-19T03:48:36;4.14;4.00;3.32;2.35;18.90;18.87;18.70;17.80;14.18;0.77
74330;SPS30;62749;51.982;5.916;2023-09-19T03:51:05;4.22;4.08;3.38;2.38;19.15;19.12;18.95;18.02;14.34;0.78
74330;SPS30;62749;51.982;5.916;2023-09-19T03:53:35;4.47;4.32;3.57;2.50;20.13;20.09;19.91;18.92;15.03;0.78
74330;SPS30;62749;51.982;5.916;2023-09-19T03:56:04;4.65;4.48;3.65;2.48;19.96;19.92;19.72;18.63;14.65;0.80
74330;SPS30;62749;51.982;5.916;2023-09-19T03:58:34;4.54;4.37;3.55;2.40;19.34;19.31;19.11;18.03;14.16;0.78
74330;SPS30;62749;51.982;5.916;2023-09-19T04:01:05;4.42;4.27;3.49;2.39;19.26;19.22;19.04;18.01;14.21;0.77
74330;SPS30;62749;51.982;5.916;2023-09-19T04:03:38;4.15;4.00;3.28;2.26;18.19;18.16;17.98;17.03;13.46;0.76
74330;SPS30;62749;51.982;5.916;2023-09-19T04:06:14;3.89;3.76;3.11;2.18;17.56;17.53;17.38;16.51;13.12;0.73
74330;SPS30;62749;51.982;5.916;2023-09-19T04:08:44;3.75;3.64;3.09;2.28;18.27;18.25;18.11;17.37;14.01;0.70
74330;SPS30;62749;51.982;5.916;2023-09-19T04:11:14;3.52;3.42;2.94;2.22;17.80;17.78;17.66;16.99;13.80;0.73
74330;SPS30;62749;51.982;5.916;2023-09-19T04:13:44;3.41;3.33;2.90;2.24;17.95;17.93;17.83;17.23;14.08;0.74
74330;SPS30;62749;51.982;5.916;2023-09-19T04:16:13;3.85;3.75;3.24;2.46;19.75;19.72;19.60;18.89;15.38;0.75
74330;SPS30;62749;51.982;5.916;2023-09-19T04:18:45;3.53;3.44;2.96;2.24;18.00;17.98;17.86;17.20;13.99;0.74
74330;SPS30;62749;51.982;5.916;2023-09-19T04:21:15;3.35;3.25;2.78;2.08;16.69;16.66;16.55;15.90;12.88;0.75
74330;SPS30;62749;51.982;5.916;2023-09-19T04:23:45;3.93;3.83;3.31;2.52;20.24;20.21;20.09;19.37;15.78;0.72
74330;SPS30;62749;51.982;5.916;2023-09-19T04:26:15;3.22;3.14;2.75;2.13;17.08;17.06;16.97;16.40;13.43;0.71
74330;SPS30;62749;51.982;5.916;2023-09-19T04:28:44;3.58;3.48;3.00;2.27;18.19;18.16;18.05;17.37;14.12;0.74
74330;SPS30;62749;51.982;5.916;2023-09-19T04:31:14;3.65;3.55;3.01;2.22;17.86;17.83;17.70;16.98;13.70;0.74
74330;SPS30;62749;51.982;5.916;2023-09-19T04:33:47;3.72;3.60;3.01;2.16;17.37;17.35;17.21;16.42;13.14;0.75
74330;SPS30;62749;51.982;5.916;2023-09-19T04:36:16;3.61;3.51;2.97;2.19;17.56;17.54;17.41;16.68;13.45;0.74
74330;SPS30;62749;51.982;5.916;2023-09-19T04:38:48;3.31;3.21;2.74;2.04;16.40;16.38;16.26;15.62;12.64;0.75
74330;SPS30;62749;51.982;5.916;2023-09-19T04:41:17;3.48;3.38;2.85;2.08;16.68;16.66;16.53;15.81;12.72;0.77
74330;SPS30;62749;51.982;5.916;2023-09-19T04:43:48;3.64;3.53;2.99;2.18;17.54;17.52;17.39;16.65;13.40;0.76
74330;SPS30;62749;51.982;5.916;2023-09-19T04:46:18;3.92;3.79;3.16;2.24;18.01;17.98;17.83;16.97;13.54;0.77
74330;SPS30;62749;51.982;5.916;2023-09-19T04:48:50;3.72;3.60;2.97;2.07;16.64;16.61;16.46;15.63;12.40;0.78
74330;SPS30;62749;51.982;5.916;2023-09-19T04:51:19;3.94;3.81;3.15;2.20;17.71;17.68;17.52;16.65;13.22;0.78
74330;SPS30;62749;51.982;5.916;2023-09-19T04:53:49;3.64;3.51;2.90;2.03;16.36;16.33;16.19;15.38;12.21;0.79
74330;SPS30;62749;51.982;5.916;2023-09-19T04:56:18;3.55;3.43;2.84;2.00;16.05;16.02;15.88;15.10;12.01;0.79
74330;SPS30;62749;51.982;5.916;2023-09-19T04:58:49;4.07;3.93;3.22;2.22;17.83;17.80;17.63;16.69;13.19;0.80
74330;SPS30;62749;51.982;5.916;2023-09-19T05:01:18;3.94;3.81;3.15;2.21;17.80;17.77;17.62;16.74;13.31;0.78
74330;SPS30;62749;51.982;5.916;2023-09-19T05:03:51;3.71;3.59;2.97;2.08;16.71;16.68;16.54;15.71;12.48;0.79
74330;SPS30;62749;51.982;5.916;2023-09-19T05:06:20;3.54;3.43;2.87;2.07;16.64;16.61;16.48;15.73;12.61;0.76
74330;SPS30;62749;51.982;5.916;2023-09-19T05:08:52;3.57;3.47;2.95;2.18;17.54;17.52;17.39;16.69;13.48;0.75
74330;SPS30;62749;51.982;5.916;2023-09-19T05:11:22;3.73;3.62;3.08;2.27;18.20;18.18;18.05;17.30;13.96;0.75
74330;SPS30;62749;51.982;5.916;2023-09-19T05:13:51;3.58;3.48;2.98;2.22;17.86;17.84;17.72;17.02;13.79;0.74
74330;SPS30;62749;51.982;5.916;2023-09-19T05:16:20;4.07;3.95;3.36;2.49;19.97;19.95;19.81;19.00;15.35;0.75
74330;SPS30;62749;51.982;5.916;2023-09-19T05:18:52;3.66;3.55;2.99;2.18;17.51;17.48;17.35;16.60;13.34;0.77
74330;SPS30;62749;51.982;5.916;2023-09-19T05:21:22;3.77;3.65;3.03;2.14;17.19;17.16;17.01;16.18;12.89;0.80
74330;SPS30;62749;51.982;5.916;2023-09-19T05:23:54;3.84;3.70;3.03;2.08;16.77;16.73;16.58;15.69;12.38;0.80
74330;SPS30;62749;51.982;5.916;2023-09-19T05:26:27;3.89;3.75;3.07;2.12;17.02;16.99;16.83;15.93;12.58;0.78
74330;SPS30;62749;51.982;5.916;2023-09-19T05:28:57;4.06;3.92;3.18;2.16;17.36;17.33;17.16;16.20;12.72;0.78
74330;SPS30;62749;51.982;5.916;2023-09-19T05:31:27;4.46;4.30;3.51;2.39;19.23;19.19;19.00;17.96;14.13;0.76
74330;SPS30;62749;51.982;5.916;2023-09-19T05:33:59;4.32;4.17;3.41;2.33;18.78;18.74;18.56;17.56;13.85;0.76
74330;SPS30;62749;51.982;5.916;2023-09-19T05:36:29;4.13;3.98;3.26;2.24;17.99;17.95;17.78;16.83;13.28;0.77
74330;SPS30;62749;51.982;5.916;2023-09-19T05:38:59;4.07;3.93;3.21;2.20;17.71;17.68;17.51;16.57;13.06;0.79
74330;SPS30;62749;51.982;5.916;2023-09-19T05:41:29;4.16;4.01;3.28;2.25;18.10;18.07;17.89;16.93;13.35;0.78
74330;SPS30;62749;51.982;5.916;2023-09-19T05:43:58;3.78;3.65;3.02;2.13;17.09;17.06;16.91;16.08;12.79;0.75
74330;SPS30;62749;51.982;5.916;2023-09-19T05:46:28;3.77;3.65;3.06;2.21;17.77;17.74;17.60;16.81;13.48;0.74
74330;SPS30;62749;51.982;5.916;2023-09-19T05:49:00;3.81;3.69;3.06;2.17;17.42;17.39;17.24;16.41;13.07;0.77
74330;SPS30;62749;51.982;5.916;2023-09-19T05:51:30;4.45;4.31;3.63;2.63;21.10;21.06;20.90;19.97;16.03;0.75
74330;SPS30;62749;51.982;5.916;2023-09-19T05:53:59;4.13;4.02;3.45;2.61;20.92;20.89;20.76;19.98;16.23;0.74
74330;SPS30;62749;51.982;5.916;2023-09-19T05:56:28;3.59;3.48;2.94;2.15;17.29;17.26;17.13;16.40;13.21;0.75
74330;SPS30;62749;51.982;5.916;2023-09-19T05:58:57;3.72;3.60;3.01;2.15;17.27;17.24;17.10;16.30;13.03;0.77
74330;SPS30;62749;51.982;5.916;2023-09-19T06:01:27;3.76;3.63;2.99;2.07;16.69;16.66;16.50;15.65;12.40;0.78
74330;SPS30;62749;51.982;5.916;2023-09-19T06:04:13;3.98;3.84;3.15;2.17;17.46;17.43;17.26;16.35;12.91;0.80
74330;SPS30;62749;51.982;5.916;2023-09-19T06:06:42;3.97;3.83;3.12;2.12;17.03;17.00;16.83;15.90;12.50;0.80
74330;SPS30;62749;51.982;5.916;2023-09-19T06:09:11;4.00;3.86;3.15;2.15;17.28;17.24;17.07;16.14;12.70;0.80
74330;SPS30;62749;51.982;5.916;2023-09-19T06:11:41;4.41;4.25;3.46;2.35;18.94;18.90;18.72;17.68;13.90;0.81
74330;SPS30;62749;51.982;5.916;2023-09-19T06:14:10;4.39;4.23;3.40;2.25;18.10;18.06;17.87;16.79;13.08;0.81
74330;SPS30;62749;51.982;5.916;2023-09-19T06:16:43;4.66;4.47;3.55;2.29;18.44;18.40;18.19;17.00;13.11;0.83
74330;SPS30;62749;51.982;5.916;2023-09-19T06:19:16;4.90;4.71;3.75;2.42;19.49;19.44;19.22;17.97;13.87;0.83
74330;SPS30;62749;51.982;5.916;2023-09-19T06:21:48;4.63;4.45;3.54;2.28;18.39;18.35;18.13;16.95;13.09;0.82
74330;SPS30;62749;51.982;5.916;2023-09-19T06:24:18;4.93;4.74;3.77;2.44;19.64;19.59;19.37;18.11;13.99;0.82
74330;SPS30;62749;51.982;5.916;2023-09-19T06:26:47;5.01;4.82;3.85;2.52;20.29;20.25;20.02;18.76;14.56;0.81
74330;SPS30;62749;51.982;5.916;2023-09-19T06:29:18;3.86;3.72;3.06;2.13;17.10;17.07;16.91;16.04;12.70;0.79
74330;SPS30;62749;51.982;5.916;2023-09-19T06:31:49;4.18;4.03;3.29;2.25;18.10;18.07;17.90;16.92;13.33;0.81
74330;SPS30;62749;51.982;5.916;2023-09-19T06:34:21;3.88;3.74;3.03;2.05;16.50;16.47;16.30;15.38;12.07;0.81
74330;SPS30;62749;51.982;5.916;2023-09-19T06:36:52;4.43;4.26;3.44;2.30;18.53;18.49;18.30;17.23;13.47;0.82
74330;SPS30;62749;51.982;5.916;2023-09-19T06:39:21;3.98;3.84;3.13;2.12;17.08;17.04;16.87;15.93;12.53;0.81
74330;SPS30;62749;51.982;5.916;2023-09-19T06:41:52;4.44;4.28;3.50;2.39;19.21;19.17;18.99;17.95;14.14;0.81
74330;SPS30;62749;51.982;5.916;2023-09-19T06:44:22;4.42;4.26;3.47;2.36;19.02;18.98;18.79;17.76;13.97;0.81
74330;SPS30;62749;51.982;5.916;2023-09-19T06:46:51;3.95;3.80;3.08;2.07;16.69;16.66;16.49;15.54;12.18;0.80
74330;SPS30;62749;51.982;5.916;2023-09-19T06:49:23;4.14;3.99;3.24;2.19;17.63;17.59;17.42;16.43;12.90;0.79
74330;SPS30;62749;51.982;5.916;2023-09-19T06:51:53;4.68;4.51;3.66;2.47;19.92;19.88;19.68;18.56;14.57;0.80
74330;SPS30;62749;51.982;5.916;2023-09-19T06:57:10;4.65;4.47;3.58;2.33;18.80;18.76;18.55;17.38;13.47;0.81
74330;SPS30;62749;51.982;5.916;2023-09-19T06:59:40;4.31;4.15;3.36;2.24;18.03;17.99;17.81;16.76;13.10;0.79
74330;SPS30;62749;51.982;5.916;2023-09-19T07:02:11;4.72;4.54;3.65;2.41;19.42;19.38;19.17;18.01;14.03;0.82
74330;SPS30;62749;51.982;5.916;2023-09-19T07:04:43;4.91;4.71;3.71;2.34;18.88;18.83;18.60;17.31;13.25;0.83
74330;SPS30;62749;51.982;5.916;2023-09-19T07:07:12;4.80;4.61;3.63;2.30;18.56;18.51;18.28;17.03;13.06;0.82
74330;SPS30;62749;51.982;5.916;2023-09-19T07:09:42;5.25;5.05;4.04;2.64;21.26;21.21;20.98;19.66;15.25;0.79
74330;SPS30;62749;51.982;5.916;2023-09-19T07:12:15;3.99;3.84;3.12;2.10;16.93;16.90;16.73;15.78;12.38;0.79
74330;SPS30;62749;51.982;5.916;2023-09-19T07:14:44;4.64;4.47;3.63;2.46;19.80;19.77;19.57;18.47;14.51;0.78
74330;SPS30;62749;51.982;5.916;2023-09-19T07:17:13;4.88;4.72;3.88;2.69;21.64;21.61;21.41;20.30;16.07;0.76
74330;SPS30;62749;51.982;5.916;2023-09-19T07:19:46;6.38;6.18;5.18;3.74;30.02;29.98;29.74;28.40;22.77;0.75
74330;SPS30;62749;51.982;5.916;2023-09-19T07:22:16;4.05;3.93;3.36;2.50;20.07;20.04;19.90;19.11;15.47;0.73
74330;SPS30;62749;51.982;5.916;2023-09-19T07:24:45;3.72;3.62;3.09;2.31;18.58;18.55;18.43;17.71;14.35;0.73
74330;SPS30;62749;51.982;5.916;2023-09-19T07:27:15;4.00;3.88;3.25;2.34;18.81;18.78;18.63;17.79;14.25;0.75
74330;SPS30;62749;51.982;5.916;2023-09-19T07:29:44;3.72;3.59;2.95;2.04;16.42;16.39;16.24;15.39;12.17;0.76
74330;SPS30;62749;51.982;5.916;2023-09-19T07:32:14;4.19;4.04;3.31;2.27;18.29;18.25;18.08;17.11;13.50;0.77
74330;SPS30;62749;51.982;5.916;2023-09-19T07:34:46;4.16;4.01;3.29;2.28;18.31;18.28;18.11;17.16;13.57;0.77
74330;SPS30;62749;51.982;5.916;2023-09-19T07:37:15;4.30;4.15;3.45;2.44;19.59;19.56;19.39;18.45;14.69;0.77
74330;SPS30;62749;51.982;5.916;2023-09-19T07:39:44;4.12;3.98;3.26;2.25;18.08;18.04;17.87;16.93;13.37;0.77
74330;SPS30;62749;51.982;5.916;2023-09-19T07:42:14;4.50;4.34;3.50;2.33;18.76;18.72;18.52;17.43;13.61;0.79
74330;SPS30;62749;51.982;5.916;2023-09-19T07:44:44;5.12;4.92;3.90;2.51;20.23;20.18;19.95;18.63;14.37;0.81
74330;SPS30;62749;51.982;5.916;2023-09-19T07:47:16;4.36;4.18;3.30;2.09;16.82;16.78;16.58;15.43;11.83;0.81
74330;SPS30;62749;51.982;5.916;2023-09-19T07:49:49;4.71;4.51;3.54;2.22;17.88;17.83;17.61;16.36;12.48;0.82
74330;SPS30;62749;51.982;5.916;2023-09-19T07:52:19;5.23;5.01;3.89;2.38;19.20;19.15;18.89;17.46;13.20;0.85
74330;SPS30;62749;51.982;5.916;2023-09-19T07:54:49;5.34;5.12;4.01;2.50;20.17;20.12;19.86;18.44;14.05;0.84
74330;SPS30;62749;51.982;5.916;2023-09-19T07:57:18;4.98;4.76;3.68;2.20;17.81;17.76;17.50;16.11;12.08;0.86
74330;SPS30;62749;51.982;5.916;2023-09-19T07:59:48;5.68;5.44;4.23;2.58;20.81;20.75;20.47;18.91;14.29;0.86
74330;SPS30;62749;51.982;5.916;2023-09-19T08:02:17;5.91;5.65;4.35;2.60;20.99;20.93;20.63;18.97;14.20;0.87
74330;SPS30;62749;51.982;5.916;2023-09-19T08:04:50;5.77;5.52;4.27;2.58;20.87;20.82;20.52;18.93;14.25;0.86
74330;SPS30;62749;51.982;5.916;2023-09-19T08:07:19;6.45;6.17;4.75;2.85;22.99;22.93;22.60;20.79;15.58;0.87
74330;SPS30;62749;51.982;5.916;2023-09-19T08:09:49;6.65;6.35;4.86;2.85;23.01;22.95;22.60;20.70;15.37;0.87
74330;SPS30;62749;51.982;5.916;2023-09-19T08:12:18;5.48;5.24;4.07;2.48;20.01;19.96;19.68;18.18;13.72;0.85
74330;SPS30;62749;51.982;5.916;2023-09-19T08:14:50;5.14;4.94;3.91;2.50;20.18;20.13;19.89;18.56;14.29;0.83
74330;SPS30;62749;51.982;5.916;2023-09-19T08:17:21;4.98;4.78;3.77;2.39;19.27;19.22;18.98;17.68;13.56;0.84
74330;SPS30;62749;51.982;5.916;2023-09-19T08:19:53;5.15;4.93;3.84;2.36;19.06;19.01;18.76;17.36;13.16;0.86
74330;SPS30;62749;51.982;5.916;2023-09-19T08:22:23;4.83;4.63;3.65;2.30;18.57;18.52;18.29;17.02;13.03;0.84
74330;SPS30;62749;51.982;5.916;2023-09-19T08:24:53;4.90;4.70;3.72;2.37;19.08;19.04;18.81;17.53;13.47;0.83
74330;SPS30;62749;51.982;5.916;2023-09-19T08:27:22;5.19;4.97;3.90;2.44;19.65;19.60;19.35;17.97;13.71;0.85
74330;SPS30;62749;51.982;5.916;2023-09-19T08:29:53;5.74;5.50;4.31;2.68;21.63;21.58;21.30;19.76;15.05;0.85
74330;SPS30;62749;51.982;5.916;2023-09-19T08:32:22;5.52;5.29;4.13;2.56;20.65;20.60;20.33;18.84;14.32;0.84
74330;SPS30;62749;51.982;5.916;2023-09-19T08:34:56;5.52;5.29;4.17;2.64;21.28;21.23;20.97;19.52;14.96;0.83
74330;SPS30;62749;51.982;5.916;2023-09-19T08:37:25;5.74;5.50;4.34;2.74;22.08;22.03;21.76;20.25;15.51;0.83
74330;SPS30;62749;51.982;5.916;2023-09-19T08:39:55;5.21;5.01;4.00;2.61;21.03;20.99;20.75;19.44;15.07;0.82
74330;SPS30;62749;51.982;5.916;2023-09-19T08:42:24;5.57;5.35;4.23;2.69;21.72;21.67;21.41;19.96;15.34;0.85
74330;SPS30;62749;51.982;5.916;2023-09-19T08:44:54;5.46;5.25;4.15;2.65;21.40;21.35;21.09;19.68;15.14;0.84
74330;SPS30;62749;51.982;5.916;2023-09-19T08:47:29;5.24;5.04;4.02;2.60;20.98;20.93;20.69;19.36;14.97;0.81
74330;SPS30;62749;51.982;5.916;2023-09-19T08:50:11;4.61;4.44;3.56;2.34;18.87;18.83;18.63;17.48;13.60;0.79
74330;SPS30;62749;51.982;5.916;2023-09-19T08:52:48;4.63;4.46;3.59;2.37;19.11;19.07;18.87;17.73;13.81;0.80
74330;SPS30;62749;51.982;5.916;2023-09-19T08:55:26;5.25;5.05;4.04;2.64;21.29;21.24;21.01;19.69;15.28;0.82
74330;SPS30;62749;51.982;5.916;2023-09-19T08:57:59;4.64;4.46;3.58;2.36;19.03;18.99;18.78;17.64;13.73;0.82
74330;SPS30;62749;51.982;5.916;2023-09-19T09:00:33;5.22;5.01;3.99;2.58;20.78;20.73;20.49;19.16;14.80;0.83
74330;SPS30;62749;51.982;5.916;2023-09-19T09:03:09;6.02;5.77;4.52;2.82;22.73;22.68;22.38;20.78;15.83;0.85
74330;SPS30;62749;51.982;5.916;2023-09-19T09:05:45;5.62;5.40;4.28;2.74;22.06;22.01;21.75;20.30;15.62;0.83
74330;SPS30;62749;51.982;5.916;2023-09-19T09:08:17;4.94;4.75;3.79;2.46;19.83;19.79;19.56;18.31;14.18;0.80
74330;SPS30;62749;51.982;5.916;2023-09-19T09:10:49;4.76;4.59;3.69;2.45;19.73;19.69;19.48;18.31;14.28;0.80
74330;SPS30;62749;51.982;5.916;2023-09-19T09:13:19;4.84;4.65;3.71;2.40;19.38;19.34;19.12;17.89;13.85;0.81
74330;SPS30;62749;51.982;5.916;2023-09-19T09:15:51;5.22;5.00;3.90;2.40;19.38;19.33;19.07;17.66;13.39;0.85
74330;SPS30;62749;51.982;5.916;2023-09-19T09:18:21;6.05;5.80;4.57;2.88;23.23;23.18;22.89;21.30;16.30;0.83
74330;SPS30;62749;51.982;5.916;2023-09-19T09:20:54;4.90;4.70;3.69;2.31;18.62;18.57;18.33;17.03;13.00;0.84
74330;SPS30;62749;51.982;5.916;2023-09-19T09:23:23;5.12;4.91;3.87;2.44;19.69;19.65;19.40;18.06;13.83;0.84
74330;SPS30;62749;51.982;5.916;2023-09-19T09:25:55;5.32;5.12;4.09;2.66;21.41;21.36;21.12;19.78;15.32;0.83
74330;SPS30;62749;51.982;5.916;2023-09-19T09:28:29;4.68;4.50;3.58;2.31;18.63;18.59;18.38;17.19;13.28;0.84
74330;SPS30;62749;51.982;5.916;2023-09-19T09:31:00;4.58;4.41;3.55;2.34;18.88;18.84;18.64;17.51;13.65;0.82
74330;SPS30;62749;51.982;5.916;2023-09-19T09:33:34;4.80;4.62;3.74;2.51;20.24;20.20;19.99;18.84;14.75;0.80
74330;SPS30;62749;51.982;5.916;2023-09-19T09:36:06;4.36;4.20;3.40;2.28;18.32;18.28;18.09;17.04;13.33;0.81